Time;durP1;ratioP1;P1;durP2;ratioP2;P2;SDS_P1;SDS_P2;PMS_P1;PMS_P2;Temp;Humidity;BMP_temperature;BMP_pressure;BME280_temperature;BME280_humidity;BME280_pressure;Samples;Min_cycle;Max_cycle;Signal;HPM_P1;HPM_P2
2021/08/06 00:02:25;;;;;;;20.13;18.23;;;15.30;96.30;;;;;;5033092;28;20041;-71
2021/08/06 00:04:51;;;;;;;22.63;20.43;;;15.30;96.30;;;;;;5032044;28;20462;-71
2021/08/06 00:07:16;;;;;;;24.20;21.70;;;15.30;96.40;;;;;;5032627;28;20483;-71
2021/08/06 00:09:42;;;;;;;23.50;21.20;;;15.20;96.50;;;;;;5033117;28;20049;-72
2021/08/06 00:12:08;;;;;;;20.80;18.87;;;15.20;96.50;;;;;;5032031;28;20071;-71
2021/08/06 00:14:35;;;;;;;22.07;19.90;;;15.20;96.60;;;;;;5032777;28;20057;-71
2021/08/06 00:17:01;;;;;;;19.17;17.33;;;15.20;96.70;;;;;;5032253;28;20053;-71
2021/08/06 00:19:27;;;;;;;22.97;20.63;;;15.20;96.60;;;;;;5031923;28;20509;-71
2021/08/06 00:21:52;;;;;;;24.17;21.63;;;15.20;96.70;;;;;;5032345;28;20053;-71
2021/08/06 00:24:18;;;;;;;23.00;20.73;;;15.20;96.70;;;;;;5032224;28;20137;-71
2021/08/06 00:26:44;;;;;;;21.70;18.23;;;15.20;96.70;;;;;;5031967;28;20486;-71
2021/08/06 00:29:10;;;;;;;23.03;20.63;;;15.20;96.70;;;;;;5032534;28;20136;-70
2021/08/06 00:31:36;;;;;;;23.73;21.30;;;15.10;96.60;;;;;;5031682;28;20046;-71
2021/08/06 00:34:02;;;;;;;23.17;20.80;;;15.10;96.70;;;;;;5031417;28;20128;-71
2021/08/06 00:36:28;;;;;;;23.53;21.20;;;15.10;96.70;;;;;;5032568;28;20140;-71
2021/08/06 00:38:53;;;;;;;21.93;19.53;;;15.10;96.80;;;;;;5032453;28;20141;-71
2021/08/06 00:41:19;;;;;;;23.50;21.23;;;15.00;96.80;;;;;;5031498;28;20468;-71
2021/08/06 00:43:44;;;;;;;23.33;20.87;;;15.00;96.80;;;;;;5032425;28;20417;-71
2021/08/06 00:46:13;;;;;;;23.40;20.97;;;15.00;96.80;;;;;;5032152;28;20049;-71
2021/08/06 00:48:40;;;;;;;24.70;22.10;;;15.00;96.90;;;;;;5031863;28;20046;-71
2021/08/06 00:51:06;;;;;;;26.67;23.93;;;15.00;96.90;;;;;;5031921;28;20050;-71
2021/08/06 00:53:32;;;;;;;26.47;23.70;;;15.10;97.00;;;;;;5031608;28;20128;-71
2021/08/06 00:55:57;;;;;;;25.67;23.10;;;15.10;97.00;;;;;;5032281;28;20125;-71
2021/08/06 00:58:23;;;;;;;25.93;23.27;;;15.10;96.90;;;;;;5032101;28;20046;-71
2021/08/06 01:00:49;;;;;;;25.83;23.37;;;15.10;96.90;;;;;;5031703;28;20049;-71
2021/08/06 01:03:23;;;;;;;24.90;22.50;;;15.10;96.80;;;;;;5031960;28;20087;-71
2021/08/06 01:06:13;;;;;;;25.30;22.40;;;15.10;96.80;;;;;;5032374;28;20394;-71
2021/08/06 01:08:56;;;;;;;23.88;21.38;;;15.10;96.70;;;;;;5020959;28;20194;-71
2021/08/06 01:11:23;;;;;;;;;;;15.10;96.80;;;;;;5032193;28;20133;-71
2021/08/06 01:13:53;;;;;;;25.73;23.07;;;15.00;96.60;;;;;;5031927;28;19928;-72
2021/08/06 01:16:19;;;;;;;23.60;21.30;;;15.00;96.70;;;;;;5031236;28;20042;-71
2021/08/06 01:19:24;;;;;;;24.37;22.10;;;15.00;96.70;;;;;;5032484;28;20049;-71
2021/08/06 01:21:58;;;;;;;26.67;23.80;;;15.00;96.70;;;;;;5009467;28;20053;-71
2021/08/06 01:24:26;;;;;;;24.17;21.57;;;15.00;96.70;;;;;;5028735;28;20045;-71
2021/08/06 01:26:51;;;;;;;24.57;22.07;;;14.90;96.70;;;;;;5032142;28;20064;-70
2021/08/06 01:29:17;;;;;;;24.00;21.60;;;14.90;96.60;;;;;;5030774;28;20477;-70
2021/08/06 01:31:43;;;;;;;26.40;23.50;;;14.90;96.70;;;;;;5032294;28;20049;-70
2021/08/06 01:34:09;;;;;;;22.63;20.23;;;14.90;96.70;;;;;;5031567;28;20088;-70
2021/08/06 01:36:35;;;;;;;25.63;22.93;;;14.90;96.70;;;;;;5031059;28;20118;-71
2021/08/06 01:39:01;;;;;;;25.70;23.17;;;14.80;96.70;;;;;;5031612;28;20060;-71
2021/08/06 01:41:36;;;;;;;26.77;23.33;;;14.80;96.70;;;;;;5031751;28;20494;-70
2021/08/06 01:44:18;;;;;;;24.23;21.73;;;14.80;96.80;;;;;;5034295;28;20053;-70
2021/08/06 01:46:52;;;;;;;;;;;14.70;96.80;;;;;;5035932;28;20052;-72
2021/08/06 01:49:27;;;;;;;22.67;20.37;;;14.70;96.60;;;;;;5035058;28;19936;-71
2021/08/06 01:52:00;;;;;;;24.33;21.87;;;14.70;96.80;;;;;;5034939;28;20050;-71
2021/08/06 01:54:29;;;;;;;25.13;22.20;;;14.60;96.80;;;;;;5035813;28;20497;-71
2021/08/06 01:56:56;;;;;;;25.70;23.03;;;14.60;96.80;;;;;;5034669;28;20056;-71
2021/08/06 01:59:22;;;;;;;26.17;23.47;;;14.60;96.90;;;;;;5034822;28;20060;-71
2021/08/06 02:01:48;;;;;;;25.83;23.13;;;14.60;97.00;;;;;;5035032;28;20045;-72
2021/08/06 02:04:14;;;;;;;25.93;23.23;;;14.50;97.00;;;;;;5034190;28;20049;-71
2021/08/06 02:06:43;;;;;;;25.70;23.23;;;14.60;97.10;;;;;;5035346;28;20046;-71
2021/08/06 02:09:14;;;;;;;27.23;23.53;;;14.50;97.20;;;;;;5034942;28;20445;-71
2021/08/06 02:11:40;;;;;;;26.67;23.90;;;14.50;97.20;;;;;;5034803;28;20057;-71
2021/08/06 02:14:06;;;;;;;26.60;23.90;;;14.50;97.10;;;;;;5034543;28;20060;-71
2021/08/06 02:16:32;;;;;;;27.10;24.13;;;14.50;97.20;;;;;;5034602;28;20560;-71
2021/08/06 02:18:59;;;;;;;26.30;23.33;;;14.50;97.20;;;;;;5034204;28;20091;-71
2021/08/06 02:21:30;;;;;;;26.63;23.93;;;14.60;97.20;;;;;;5034929;28;20045;-71
2021/08/06 02:24:02;;;;;;;25.13;22.67;;;14.50;97.30;;;;;;5034941;28;20049;-72
2021/08/06 02:26:30;;;;;;;25.70;23.00;;;14.60;97.30;;;;;;5034080;28;20049;-71
2021/08/06 02:28:56;;;;;;;24.73;22.13;;;14.60;97.20;;;;;;5034578;28;20045;-72
2021/08/06 02:31:22;;;;;;;26.63;23.67;;;14.60;97.20;;;;;;5034495;28;20107;-71
2021/08/06 02:33:48;;;;;;;25.83;23.13;;;14.50;97.20;;;;;;5033725;28;20512;-71
2021/08/06 02:36:14;;;;;;;23.83;21.33;;;14.50;97.20;;;;;;5034330;28;20084;-71
2021/08/06 02:38:41;;;;;;;26.27;23.53;;;14.50;97.20;;;;;;5034682;28;20077;-71
2021/08/06 02:41:10;;;;;;;22.70;20.40;;;14.50;97.30;;;;;;5033660;28;20046;-71
2021/08/06 02:43:38;;;;;;;24.07;21.43;;;14.50;97.40;;;;;;5034736;28;20046;-71
2021/08/06 02:46:04;;;;;;;25.73;23.03;;;14.50;97.40;;;;;;5033574;28;20046;-71
2021/08/06 02:48:30;;;;;;;23.10;20.43;;;14.50;97.50;;;;;;5035082;28;20080;-71
2021/08/06 02:50:55;;;;;;;24.80;22.30;;;14.50;97.50;;;;;;5034318;28;20041;-71
2021/08/06 02:53:21;;;;;;;25.30;22.73;;;14.50;97.50;;;;;;5033304;28;20843;-72
2021/08/06 02:55:47;;;;;;;23.97;21.57;;;14.60;98.00;;;;;;5033886;28;20454;-71
2021/08/06 02:58:12;;;;;;;21.23;19.03;;;14.60;97.60;;;;;;5033543;28;20497;-71
2021/08/06 03:00:38;;;;;;;24.27;21.53;;;14.70;97.60;;;;;;5033316;28;20132;-71
2021/08/06 03:03:03;;;;;;;25.67;22.83;;;14.70;97.60;;;;;;5033865;28;20052;-71
2021/08/06 03:05:29;;;;;;;25.80;21.13;;;14.70;97.50;;;;;;5033898;28;20187;-71
2021/08/06 03:07:55;;;;;;;19.97;18.00;;;14.70;97.50;;;;;;5033078;28;20498;-71
2021/08/06 03:10:21;;;;;;;23.93;21.43;;;14.70;97.50;;;;;;5033604;28;20056;-71
2021/08/06 03:12:49;;;;;;;23.20;20.83;;;14.70;97.60;;;;;;5033758;28;20049;-71
2021/08/06 03:15:16;;;;;;;24.47;21.47;;;14.70;97.60;;;;;;5032497;28;20093;-71
2021/08/06 03:17:42;;;;;;;22.50;19.63;;;14.70;97.70;;;;;;5033902;28;20045;-71
2021/08/06 03:20:10;;;;;;;22.07;19.77;;;14.70;97.70;;;;;;5033600;28;20057;-71
2021/08/06 03:22:37;;;;;;;20.67;18.67;;;14.70;97.70;;;;;;5033225;28;20069;-71
2021/08/06 03:25:08;;;;;;;23.97;21.37;;;14.70;97.70;;;;;;5033297;28;20077;-71
2021/08/06 03:27:34;;;;;;;27.17;22.15;;;14.80;97.70;;;;;;5033494;28;20068;-71
2021/08/06 03:30:00;;;;;;;24.90;22.23;;;14.80;97.70;;;;;;5032658;28;20050;-71
2021/08/06 03:32:26;;;;;;;22.53;20.23;;;14.80;97.80;;;;;;5033651;28;20057;-71
2021/08/06 03:34:52;;;;;;;24.17;21.43;;;14.80;97.80;;;;;;5033818;28;20041;-71
2021/08/06 03:37:17;;;;;;;23.77;21.23;;;14.90;97.80;;;;;;5032348;28;20478;-71
2021/08/06 03:39:43;;;;;;;24.47;21.03;;;14.90;97.80;;;;;;5033456;28;20069;-71
2021/08/06 03:42:09;;;;;;;25.17;21.57;;;14.90;97.80;;;;;;5033599;28;20045;-71
2021/08/06 03:44:35;;;;;;;24.50;20.83;;;14.90;97.80;;;;;;5032669;28;20135;-71
2021/08/06 03:47:00;;;;;;;23.27;20.77;;;14.90;97.80;;;;;;5033112;28;20133;-71
2021/08/06 03:49:26;;;;;;;23.70;20.60;;;15.00;97.80;;;;;;5032405;28;20080;-71
2021/08/06 03:51:52;;;;;;;22.97;19.67;;;15.00;97.80;;;;;;5033385;28;20536;-71
2021/08/06 03:54:17;;;;;;;21.13;19.13;;;15.00;97.80;;;;;;5032901;28;20050;-71
2021/08/06 03:56:43;;;;;;;21.90;18.87;;;15.00;97.80;;;;;;5032812;28;20049;-71
2021/08/06 03:59:09;;;;;;;21.33;19.03;;;15.10;97.80;;;;;;5032702;28;20049;-71
2021/08/06 04:01:34;;;;;;;20.97;18.77;;;15.00;97.80;;;;;;5033281;28;20501;-71
2021/08/06 04:04:00;;;;;;;19.17;17.13;;;15.10;97.80;;;;;;5031979;28;20060;-71
2021/08/06 04:06:26;;;;;;;23.83;19.63;;;15.10;97.80;;;;;;5032665;28;20046;-71
2021/08/06 04:08:52;;;;;;;21.30;19.17;;;15.10;97.80;;;;;;5032714;28;20056;-71
2021/08/06 04:11:18;;;;;;;22.27;18.33;;;15.10;97.90;;;;;;5031631;28;20041;-71
2021/08/06 04:13:43;;;;;;;21.30;18.37;;;15.10;97.90;;;;;;5032617;28;20363;-71
2021/08/06 04:16:09;;;;;;;23.33;19.00;;;15.10;97.90;;;;;;5032888;28;20056;-71
2021/08/06 04:18:35;;;;;;;25.70;20.00;;;15.00;98.00;;;;;;5031995;28;20060;-71
2021/08/06 04:21:00;;;;;;;20.30;18.30;;;15.10;98.10;;;;;;5032362;28;20390;-71
2021/08/06 04:23:26;;;;;;;19.50;17.53;;;15.10;98.20;;;;;;5032599;28;20056;-71
2021/08/06 04:25:53;;;;;;;22.70;19.73;;;15.10;98.20;;;;;;5031688;28;20073;-71
2021/08/06 04:28:18;;;;;;;20.83;18.27;;;15.10;98.20;;;;;;5032492;28;20069;-72
2021/08/06 04:30:44;;;;;;;21.63;17.53;;;15.10;98.20;;;;;;5032204;28;20111;-71
2021/08/06 04:33:10;;;;;;;19.17;17.17;;;15.10;98.20;;;;;;5031592;28;20049;-72
2021/08/06 04:35:36;;;;;;;20.07;17.37;;;15.20;98.20;;;;;;5032461;28;20050;-72
2021/08/06 04:38:02;;;;;;;20.83;18.57;;;15.20;98.10;;;;;;5031767;28;20050;-72
2021/08/06 04:40:28;;;;;;;19.73;17.53;;;15.30;98.10;;;;;;5032112;28;20053;-72
2021/08/06 04:42:54;;;;;;;21.40;18.33;;;15.30;98.10;;;;;;5033335;28;20045;-71
2021/08/06 04:45:19;;;;;;;25.23;19.50;;;15.30;98.10;;;;;;5031706;28;20394;-71
2021/08/06 04:47:50;;;;;;;20.43;18.30;;;15.30;98.10;;;;;;5031565;28;20057;-71
2021/08/06 04:50:21;;;;;;;17.67;15.43;;;15.30;98.10;;;;;;5031446;28;20049;-71
2021/08/06 04:52:47;;;;;;;19.45;17.38;;;15.30;98.20;;;;;;5031399;28;20458;-71
2021/08/06 04:55:13;;;;;;;20.13;17.87;;;15.30;98.20;;;;;;5031716;28;20080;-71
2021/08/06 04:57:40;;;;;;;19.53;17.00;;;15.30;98.20;;;;;;5032009;28;20383;-71
2021/08/06 05:00:07;;;;;;;19.37;16.93;;;15.40;98.20;;;;;;5031310;28;20410;-71
2021/08/06 05:02:33;;;;;;;19.00;17.00;;;15.40;98.20;;;;;;5032107;28;20050;-71
2021/08/06 05:05:01;;;;;;;17.67;15.63;;;15.40;98.20;;;;;;5031605;28;20060;-71
2021/08/06 05:07:27;;;;;;;18.03;16.13;;;15.40;98.20;;;;;;5031213;28;20049;-71
2021/08/06 05:09:52;;;;;;;18.77;16.40;;;15.50;98.10;;;;;;5031913;28;20049;-71
2021/08/06 05:12:18;;;;;;;19.60;16.50;;;15.50;98.10;;;;;;5031650;28;20498;-71
2021/08/06 05:14:44;;;;;;;15.83;14.23;;;15.50;98.00;;;;;;5030786;28;20054;-70
2021/08/06 05:17:10;;;;;;;17.90;16.17;;;15.50;98.00;;;;;;5032130;28;20049;-70
2021/08/06 05:19:36;;;;;;;17.93;16.13;;;15.50;98.00;;;;;;5035500;28;20421;-71
2021/08/06 05:22:02;;;;;;;18.03;15.17;;;15.60;98.00;;;;;;5034707;28;20049;-71
2021/08/06 05:24:34;;;;;;;17.47;15.77;;;15.60;98.00;;;;;;5035685;28;20085;-71
2021/08/06 05:27:03;;;;;;;19.40;15.63;;;15.60;98.00;;;;;;5035507;28;20111;-71
2021/08/06 05:29:31;;;;;;;17.77;15.87;;;15.60;97.90;;;;;;5034612;28;20053;-71
2021/08/06 05:31:56;;;;;;;18.50;15.97;;;15.70;97.80;;;;;;5035652;28;20129;-71
2021/08/06 05:34:22;;;;;;;20.47;15.77;;;15.60;97.80;;;;;;5035031;28;20073;-71
2021/08/06 05:36:48;;;;;;;18.07;16.27;;;15.70;97.80;;;;;;5034785;28;20049;-71
2021/08/06 05:39:13;;;;;;;17.33;15.30;;;15.70;97.90;;;;;;5035088;28;20076;-71
2021/08/06 05:41:39;;;;;;;17.87;16.07;;;15.70;97.90;;;;;;5035092;28;20064;-71
2021/08/06 05:44:05;;;;;;;17.40;15.30;;;15.70;97.80;;;;;;5034180;28;20094;-71
2021/08/06 05:46:31;;;;;;;17.67;15.10;;;15.70;97.80;;;;;;5035108;28;20056;-71
2021/08/06 05:48:57;;;;;;;16.77;15.07;;;15.70;97.80;;;;;;5034843;28;20049;-71
2021/08/06 05:51:25;;;;;;;13.67;12.37;;;15.80;97.90;;;;;;5035070;28;20056;-70
2021/08/06 05:53:51;;;;;;;17.37;15.50;;;15.80;97.90;;;;;;5038338;28;20041;-70
2021/08/06 05:56:16;;;;;;;18.40;15.77;;;15.80;97.90;;;;;;5043821;28;20049;-70
2021/08/06 05:58:42;;;;;;;18.17;15.97;;;15.90;97.90;;;;;;5045228;28;20126;-70
2021/08/06 06:01:08;;;;;;;17.70;15.80;;;15.90;98.30;;;;;;5042907;28;20184;-70
2021/08/06 06:03:34;;;;;;;17.17;15.37;;;16.00;97.90;;;;;;5043040;28;20064;-70
2021/08/06 06:05:59;;;;;;;16.23;14.53;;;16.00;98.00;;;;;;5045621;28;20048;-71
2021/08/06 06:08:26;;;;;;;16.13;14.47;;;16.10;98.00;;;;;;5042372;28;20045;-70
2021/08/06 06:10:53;;;;;;;15.03;13.57;;;16.20;98.00;;;;;;5041931;28;20042;-70
2021/08/06 06:13:19;;;;;;;19.67;15.57;;;16.20;97.90;;;;;;5043624;28;20052;-70
2021/08/06 06:15:45;;;;;;;18.50;13.97;;;16.30;98.00;;;;;;5044149;28;20053;-69
2021/08/06 06:18:11;;;;;;;14.70;13.20;;;16.40;98.00;;;;;;5043192;28;20075;-70
2021/08/06 06:20:37;;;;;;;15.57;13.97;;;16.50;97.80;;;;;;5043092;28;20474;-70
2021/08/06 06:23:03;;;;;;;14.50;13.10;;;16.50;97.70;;;;;;5043268;28;20049;-70
2021/08/06 06:25:29;;;;;;;14.47;12.97;;;16.60;97.60;;;;;;5043996;28;20063;-70
2021/08/06 06:27:58;;;;;;;13.23;11.93;;;16.60;97.50;;;;;;5043425;28;20109;-70
2021/08/06 06:30:27;;;;;;;14.70;12.00;;;16.60;97.40;;;;;;5041333;28;20079;-70
2021/08/06 06:32:54;;;;;;;14.60;13.17;;;16.60;97.30;;;;;;5042602;28;20053;-69
2021/08/06 06:35:20;;;;;;;14.80;13.07;;;16.60;97.30;;;;;;5043563;28;20052;-70
2021/08/06 06:37:47;;;;;;;15.07;13.50;;;16.60;97.30;;;;;;5044712;28;20057;-70
2021/08/06 06:40:14;;;;;;;13.83;12.43;;;16.60;97.30;;;;;;5041991;28;20465;-71
2021/08/06 06:42:40;;;;;;;13.77;12.37;;;16.60;97.30;;;;;;5043836;28;20045;-70
2021/08/06 06:45:07;;;;;;;13.33;11.93;;;16.70;97.40;;;;;;5043658;28;20042;-70
2021/08/06 06:47:41;;;;;;;14.60;13.10;;;16.70;97.40;;;;;;5042835;28;20045;-70
2021/08/06 06:50:10;;;;;;;16.73;13.53;;;16.70;97.50;;;;;;5042117;28;20507;-70
2021/08/06 06:52:36;;;;;;;15.03;13.53;;;16.70;97.60;;;;;;5043897;28;20041;-70
2021/08/06 06:55:04;;;;;;;14.80;13.30;;;16.80;97.70;;;;;;5043534;28;20402;-70
2021/08/06 06:57:30;;;;;;;14.43;13.03;;;16.80;97.70;;;;;;5042175;28;20033;-69
2021/08/06 06:59:55;;;;;;;14.27;12.87;;;16.90;97.70;;;;;;5043240;28;20049;-69
2021/08/06 07:02:22;;;;;;;15.43;12.53;;;16.90;97.70;;;;;;5043546;28;20079;-70
2021/08/06 07:04:48;;;;;;;13.60;12.27;;;17.00;97.80;;;;;;5042048;28;20049;-69
2021/08/06 07:07:13;;;;;;;14.43;12.93;;;17.10;97.70;;;;;;5052766;28;20160;-69
2021/08/06 07:09:40;;;;;;;15.33;12.90;;;17.20;97.70;;;;;;5053321;28;20056;-69
2021/08/06 07:12:06;;;;;;;14.37;12.93;;;17.20;97.70;;;;;;5053098;28;20076;-69
2021/08/06 07:14:31;;;;;;;14.50;12.70;;;17.30;97.70;;;;;;5052401;28;20502;-69
2021/08/06 07:16:59;;;;;;;14.73;13.23;;;17.30;97.70;;;;;;5053642;28;20055;-70
2021/08/06 07:19:24;;;;;;;12.20;11.00;;;17.40;97.70;;;;;;5053300;28;20057;-69
2021/08/06 07:21:50;;;;;;;12.83;11.20;;;17.50;97.50;;;;;;5052990;28;20048;-70
2021/08/06 07:24:17;;;;;;;12.17;8.57;;;17.50;97.40;;;;;;5053243;28;20059;-71
2021/08/06 07:26:43;;;;;;;9.67;8.57;;;17.60;97.40;;;;;;5053473;28;20045;-72
2021/08/06 07:29:09;;;;;;;10.43;8.50;;;17.50;97.20;;;;;;5052329;28;20481;-72
2021/08/06 07:31:35;;;;;;;15.67;9.43;;;17.50;97.00;;;;;;5053198;28;20056;-71
2021/08/06 07:34:00;;;;;;;11.87;9.87;;;17.50;97.00;;;;;;5053455;28;20056;-72
2021/08/06 07:36:26;;;;;;;11.57;9.43;;;17.50;97.10;;;;;;5052462;28;20052;-72
2021/08/06 07:38:53;;;;;;;10.67;9.53;;;17.40;97.20;;;;;;5053297;28;20171;-72
2021/08/06 07:41:19;;;;;;;11.83;10.10;;;17.40;97.30;;;;;;5052007;28;20091;-70
2021/08/06 07:43:44;;;;;;;11.57;10.23;;;17.40;97.40;;;;;;5052651;28;20060;-72
2021/08/06 07:46:10;;;;;;;10.70;9.60;;;17.40;97.50;;;;;;5052840;28;20118;-73
2021/08/06 07:48:36;;;;;;;10.63;9.50;;;17.40;97.70;;;;;;5052579;28;20057;-72
2021/08/06 07:51:02;;;;;;;12.10;10.90;;;17.50;97.80;;;;;;5043868;28;20076;-72
2021/08/06 07:53:28;;;;;;;11.80;10.30;;;17.50;97.80;;;;;;5043471;28;20045;-73
2021/08/06 07:55:54;;;;;;;11.57;10.37;;;17.50;97.80;;;;;;5040920;28;20068;-70
2021/08/06 07:58:20;;;;;;;11.57;10.33;;;17.60;97.80;;;;;;5039062;28;20053;-73
2021/08/06 08:00:46;;;;;;;13.37;10.90;;;17.60;97.80;;;;;;5032449;28;20490;-71
2021/08/06 08:03:11;;;;;;;12.37;11.13;;;17.60;97.70;;;;;;5031648;28;20052;-71
2021/08/06 08:05:37;;;;;;;11.73;10.60;;;17.70;97.80;;;;;;5032755;28;20379;-70
2021/08/06 08:08:03;;;;;;;14.20;11.30;;;17.70;97.80;;;;;;5032295;28;20049;-70
2021/08/06 08:10:30;;;;;;;12.70;11.40;;;17.80;97.90;;;;;;5032026;28;20439;-71
2021/08/06 08:12:55;;;;;;;14.13;11.67;;;17.80;98.00;;;;;;5032751;28;20128;-70
2021/08/06 08:15:21;;;;;;;11.87;10.30;;;17.80;98.00;;;;;;5032067;28;20136;-70
2021/08/06 08:17:47;;;;;;;11.00;9.90;;;17.90;98.10;;;;;;5031529;28;20057;-71
2021/08/06 08:20:15;;;;;;;11.60;9.53;;;17.90;97.90;;;;;;5030804;28;20493;-71
2021/08/06 08:22:41;;;;;;;10.70;9.60;;;18.00;97.90;;;;;;5031083;28;20049;-71
2021/08/06 08:25:08;;;;;;;10.87;9.77;;;18.00;97.80;;;;;;5029865;28;20417;-71
2021/08/06 08:27:34;;;;;;;10.47;8.80;;;18.00;97.80;;;;;;5031376;28;20573;-70
2021/08/06 08:30:01;;;;;;;12.97;10.10;;;18.00;97.70;;;;;;5030573;28;20053;-71
2021/08/06 08:32:27;;;;;;;11.67;8.80;;;18.00;97.60;;;;;;5030373;28;20053;-71
2021/08/06 08:34:53;;;;;;;9.37;8.47;;;18.00;97.50;;;;;;5032337;28;20045;-71
2021/08/06 08:37:18;;;;;;;9.63;8.63;;;18.00;97.40;;;;;;5032035;28;20056;-71
2021/08/06 08:39:44;;;;;;;10.57;9.47;;;18.00;97.40;;;;;;5031439;28;20483;-70
2021/08/06 08:42:10;;;;;;;9.90;8.90;;;18.00;97.30;;;;;;5031991;28;20046;-70
2021/08/06 08:44:38;;;;;;;13.03;10.17;;;18.00;97.30;;;;;;5032248;28;20109;-71
2021/08/06 08:47:06;;;;;;;13.73;10.60;;;17.90;97.30;;;;;;5031263;28;20481;-71
2021/08/06 08:49:34;;;;;;;23.23;14.63;;;17.90;97.30;;;;;;5032251;28;20053;-71
2021/08/06 08:52:00;;;;;;;19.63;14.20;;;17.90;97.40;;;;;;5030556;28;20410;-70
2021/08/06 08:54:27;;;;;;;13.60;11.77;;;17.80;97.40;;;;;;5032106;28;20468;-70
2021/08/06 08:56:53;;;;;;;14.00;12.30;;;17.80;97.50;;;;;;5032156;28;20065;-70
2021/08/06 08:59:19;;;;;;;10.20;8.53;;;17.70;97.60;;;;;;5030416;28;20065;-70
2021/08/06 09:01:45;;;;;;;10.10;8.50;;;17.70;97.80;;;;;;5031521;28;20115;-70
2021/08/06 09:04:23;;;;;;;9.13;8.07;;;17.60;97.90;;;;;;5031302;28;20518;-70
2021/08/06 09:06:51;;;;;;;9.47;8.20;;;17.50;98.00;;;;;;5031280;28;20042;-70
2021/08/06 09:09:22;;;;;;;9.60;8.03;;;17.50;98.20;;;;;;5031777;28;20131;-71
2021/08/06 09:12:02;;;;;;;7.30;6.40;;;17.50;98.40;;;;;;5032087;28;20041;-70
2021/08/06 09:14:30;;;;;;;8.43;7.30;;;17.40;98.40;;;;;;5030748;28;20057;-71
2021/08/06 09:17:09;;;;;;;8.87;7.97;;;17.50;98.50;;;;;;5033595;28;20483;-71
2021/08/06 09:19:40;;;;;;;9.33;8.10;;;17.50;98.60;;;;;;5041197;28;20121;-71
2021/08/06 09:22:14;;;;;;;7.35;6.63;;;17.50;98.60;;;;;;5039594;28;20042;-71
2021/08/06 09:25:14;;;;;;;8.80;7.93;;;17.60;98.80;;;;;;5040064;28;20071;-72
2021/08/06 09:27:59;;;;;;;8.90;8.00;;;17.60;98.80;;;;;;5041315;28;20052;-71
2021/08/06 09:30:35;;;;;;;8.90;8.10;;;17.70;99.10;;;;;;5032340;28;20418;-72
2021/08/06 09:33:00;;;;;;;10.60;9.47;;;17.90;99.40;;;;;;5031318;28;20064;-72
2021/08/06 09:35:28;;;;;;;8.33;7.43;;;18.30;99.80;;;;;;5030416;28;20049;-72
2021/08/06 09:37:58;;;;;;;7.40;6.70;;;18.60;99.90;;;;;;5031494;28;20062;-72
2021/08/06 09:40:29;;;;;;;7.00;6.30;;;19.00;99.90;;;;;;5031316;28;20053;-71
2021/08/06 09:43:00;;;;;;;6.97;6.38;;;19.40;99.00;;;;;;5031214;28;20045;-70
2021/08/06 09:45:36;;;;;;;6.13;5.50;;;19.60;98.30;;;;;;5031342;28;20054;-70
2021/08/06 09:48:02;;;;;;;6.70;6.00;;;19.70;97.40;;;;;;5031390;28;20073;-71
2021/08/06 09:50:37;;;;;;;6.77;5.80;;;19.70;97.20;;;;;;5040524;28;20053;-69
2021/08/06 09:53:05;;;;;;;5.70;5.07;;;19.60;97.00;;;;;;5040120;28;20049;-70
2021/08/06 09:55:35;;;;;;;5.90;5.40;;;19.50;96.70;;;;;;5039421;28;20059;-70
2021/08/06 09:58:13;;;;;;;4.83;4.43;;;19.40;96.70;;;;;;5048675;28;20195;-71
2021/08/06 10:00:47;;;;;;;6.40;4.03;;;19.40;96.80;;;;;;5051129;28;20048;-71
2021/08/06 10:03:33;;;;;;;5.57;4.47;;;19.30;96.60;;;;;;5050630;28;20049;-72
2021/08/06 10:06:11;;;;;;;5.17;4.37;;;19.30;96.60;;;;;;5055049;28;20049;-71
2021/08/06 10:08:37;;;;;;;5.57;5.07;;;19.20;96.70;;;;;;5055096;28;20044;-71
2021/08/06 10:11:03;;;;;;;4.80;4.20;;;19.10;96.70;;;;;;5053898;28;20068;-70
2021/08/06 10:13:29;;;;;;;4.93;3.50;;;19.00;96.80;;;;;;5054636;28;20056;-70
2021/08/06 10:15:57;;;;;;;6.77;4.90;;;19.00;96.70;;;;;;5054100;28;20057;-70
2021/08/06 10:18:22;;;;;;;5.53;4.87;;;18.90;96.70;;;;;;5053710;28;20055;-71
2021/08/06 10:20:49;;;;;;;5.30;4.80;;;18.90;96.80;;;;;;5048179;28;20045;-70
2021/08/06 10:23:15;;;;;;;4.30;3.90;;;18.90;97.00;;;;;;5049163;28;20427;-69
2021/08/06 10:25:41;;;;;;;4.77;3.80;;;18.90;96.90;;;;;;5051140;28;20143;-69
2021/08/06 10:28:07;;;;;;;4.60;4.03;;;18.90;97.00;;;;;;5050360;28;20079;-69
2021/08/06 10:30:36;;;;;;;4.17;3.50;;;18.90;97.30;;;;;;5049603;28;20061;-69
2021/08/06 10:33:20;;;;;;;4.00;3.00;;;19.00;97.30;;;;;;5050028;28;20076;-70
2021/08/06 10:35:54;;;;;;;5.83;3.10;;;19.20;97.30;;;;;;5051080;28;20576;-70
2021/08/06 10:38:40;;;;;;;3.10;2.80;;;19.40;97.20;;;;;;5049084;28;20143;-71
2021/08/06 10:41:16;;;;;;;4.07;2.90;;;19.50;96.90;;;;;;5049681;28;20610;-68
2021/08/06 10:43:59;;;;;;;3.50;3.10;;;19.60;96.70;;;;;;5049709;28;20481;-68
2021/08/06 10:46:26;;;;;;;3.20;2.80;;;19.80;96.40;;;;;;5050110;28;20068;-67
2021/08/06 10:48:54;;;;;;;4.47;3.20;;;19.90;96.00;;;;;;5050528;28;20053;-69
2021/08/06 10:51:24;;;;;;;5.03;2.90;;;20.00;95.30;;;;;;5048881;28;20049;-69
2021/08/06 10:53:59;;;;;;;4.20;2.80;;;20.00;95.00;;;;;;5050289;28;20098;-70
2021/08/06 10:56:29;;;;;;;5.33;3.37;;;20.00;94.60;;;;;;5049776;28;20437;-67
2021/08/06 10:59:12;;;;;;;5.03;3.13;;;20.00;94.40;;;;;;5050415;28;20049;-68
2021/08/06 11:01:45;;;;;;;5.27;3.23;;;20.00;94.00;;;;;;5049607;28;20052;-67
2021/08/06 11:04:16;;;;;;;4.07;3.40;;;20.10;94.20;;;;;;5049755;28;20478;-68
2021/08/06 11:06:47;;;;;;;5.90;3.40;;;20.20;94.00;;;;;;5049408;28;20141;-68
2021/08/06 11:09:32;;;;;;;5.03;3.13;;;20.30;93.60;;;;;;5050492;28;20053;-68
2021/08/06 11:12:11;;;;;;;6.07;3.63;;;20.20;93.50;;;;;;5049907;28;20291;-67
2021/08/06 11:14:40;;;;;;;3.90;2.50;;;20.30;93.30;;;;;;5049153;28;20057;-67
2021/08/06 11:17:14;;;;;;;3.30;2.50;;;20.30;93.00;;;;;;5049263;28;20049;-68
2021/08/06 11:19:48;;;;;;;3.13;2.60;;;20.30;92.60;;;;;;5049818;28;20128;-68
2021/08/06 11:22:16;;;;;;;3.27;2.43;;;20.50;93.10;;;;;;5049470;28;20049;-68
2021/08/06 11:24:48;;;;;;;3.07;2.43;;;20.60;92.70;;;;;;5048996;28;20049;-68
2021/08/06 11:27:15;;;;;;;3.93;2.10;;;20.60;91.90;;;;;;5048493;28;20106;-69
2021/08/06 11:29:43;;;;;;;2.80;1.95;;;20.40;90.40;;;;;;5049926;28;20072;-67
2021/08/06 11:32:15;;;;;;;3.57;2.17;;;20.10;90.00;;;;;;5049226;28;20111;-67
2021/08/06 11:35:01;;;;;;;;;;;19.70;90.50;;;;;;5048995;28;20051;-68
2021/08/06 11:37:47;;;;;;;4.03;2.90;;;19.40;89.70;;;;;;5041743;28;19921;-67
2021/08/06 11:40:14;;;;;;;5.60;2.70;;;19.20;91.10;;;;;;5039432;28;20053;-67
2021/08/06 11:42:40;;;;;;;4.20;2.33;;;19.40;91.30;;;;;;5038356;28;20052;-68
2021/08/06 11:45:08;;;;;;;3.97;2.87;;;19.60;91.00;;;;;;5043182;28;20489;-67
2021/08/06 11:47:43;;;;;;;3.93;2.70;;;20.00;90.50;;;;;;5048620;28;20508;-68
2021/08/06 11:50:12;;;;;;;4.50;2.60;;;20.30;89.90;;;;;;5048628;28;20053;-67
2021/08/06 11:52:49;;;;;;;4.53;2.78;;;20.60;88.70;;;;;;5049350;28;20053;-68
2021/08/06 11:55:17;;;;;;;3.80;2.93;;;20.80;88.10;;;;;;5045785;28;20098;-68
2021/08/06 11:57:52;;;;;;;4.53;3.30;;;21.00;87.60;;;;;;5028986;28;20045;-66
2021/08/06 12:00:23;;;;;;;4.18;3.58;;;21.10;87.20;;;;;;5037963;28;20413;-68
2021/08/06 12:03:03;;;;;;;4.20;3.05;;;21.30;87.80;;;;;;5043092;28;20053;-67
2021/08/06 12:05:29;;;;;;;5.90;3.40;;;21.30;87.40;;;;;;5048629;28;20045;-67
2021/08/06 12:07:55;;;;;;;4.45;3.03;;;21.30;87.00;;;;;;5048650;28;20421;-66
2021/08/06 12:10:25;;;;;;;5.70;3.97;;;21.30;86.70;;;;;;5048185;28;20082;-67
2021/08/06 12:12:52;;;;;;;4.28;3.35;;;21.20;86.60;;;;;;5048726;28;20052;-67
2021/08/06 12:15:27;;;;;;;6.03;4.22;;;21.20;87.10;;;;;;5048444;28;20053;-67
2021/08/06 12:18:12;;;;;;;7.28;3.45;;;21.10;86.00;;;;;;5047871;28;20045;-68
2021/08/06 12:20:51;;;;;;;4.63;3.88;;;21.00;85.60;;;;;;5048325;28;20049;-68
2021/08/06 12:23:18;;;;;;;6.05;4.40;;;20.90;87.10;;;;;;5048313;28;20048;-69
2021/08/06 12:26:20;;;;;;;7.85;5.72;;;20.80;87.90;;;;;;5048894;28;20556;-72
2021/08/06 12:29:03;;;;;;;;;;;20.70;89.10;;;;;;5048836;28;20681;-74
2021/08/06 12:31:29;;;;;;;4.97;4.33;;;20.50;90.00;;;;;;5047868;28;19927;-69
2021/08/06 12:34:23;;;;;;;8.20;5.40;;;20.40;90.30;;;;;;5048956;28;20098;-70
2021/08/06 12:36:52;;;;;;;8.97;6.53;;;20.30;90.70;;;;;;5047208;28;20132;-70
2021/08/06 12:39:18;;;;;;;5.90;5.00;;;20.50;91.50;;;;;;5047247;28;20045;-69
2021/08/06 12:41:46;;;;;;;6.70;5.10;;;20.60;91.60;;;;;;5046727;28;20067;-72
2021/08/06 12:44:31;;;;;;;6.75;5.32;;;20.90;91.10;;;;;;5040459;28;20049;-71